sensor_id;sensor_type;location;lat;lon;timestamp;temperature;humidity
16655;DHT22;8441;51.344;7.022;2022-12-07T00:01:20;4.40;99.90
16655;DHT22;8441;51.344;7.022;2022-12-07T00:03:48;4.40;99.90
16655;DHT22;8441;51.344;7.022;2022-12-07T00:06:17;4.40;99.90
16655;DHT22;8441;51.344;7.022;2022-12-07T00:08:45;4.40;99.90
16655;DHT22;8441;51.344;7.022;2022-12-07T00:11:14;4.40;99.90
16655;DHT22;8441;51.344;7.022;2022-12-07T00:13:42;4.40;99.90
16655;DHT22;8441;51.344;7.022;2022-12-07T00:16:12;4.40;99.90
16655;DHT22;8441;51.344;7.022;2022-12-07T00:18:40;4.40;99.90
16655;DHT22;8441;51.344;7.022;2022-12-07T00:21:11;4.40;99.90
16655;DHT22;8441;51.344;7.022;2022-12-07T00:23:39;4.40;99.90
16655;DHT22;8441;51.344;7.022;2022-12-07T00:26:08;4.40;99.90
16655;DHT22;8441;51.344;7.022;2022-12-07T00:28:35;4.40;99.90
16655;DHT22;8441;51.344;7.022;2022-12-07T00:31:04;4.40;99.90
16655;DHT22;8441;51.344;7.022;2022-12-07T00:33:33;4.40;99.90
16655;DHT22;8441;51.344;7.022;2022-12-07T00:36:01;4.40;99.90
16655;DHT22;8441;51.344;7.022;2022-12-07T00:38:29;4.40;99.90
16655;DHT22;8441;51.344;7.022;2022-12-07T00:40:57;4.30;99.90
16655;DHT22;8441;51.344;7.022;2022-12-07T00:43:24;4.40;99.90
16655;DHT22;8441;51.344;7.022;2022-12-07T00:45:52;4.40;99.90
16655;DHT22;8441;51.344;7.022;2022-12-07T00:48:20;4.40;99.90
16655;DHT22;8441;51.344;7.022;2022-12-07T00:50:48;4.40;99.90
16655;DHT22;8441;51.344;7.022;2022-12-07T00:53:16;4.40;99.90
16655;DHT22;8441;51.344;7.022;2022-12-07T00:55:43;4.40;99.90
16655;DHT22;8441;51.344;7.022;2022-12-07T00:58:11;4.50;99.90
16655;DHT22;8441;51.344;7.022;2022-12-07T01:00:40;4.40;99.90
16655;DHT22;8441;51.344;7.022;2022-12-07T01:03:09;4.40;99.90
16655;DHT22;8441;51.344;7.022;2022-12-07T01:05:36;4.40;99.90
16655;DHT22;8441;51.344;7.022;2022-12-07T01:08:05;4.40;99.90
16655;DHT22;8441;51.344;7.022;2022-12-07T01:10:33;4.40;99.90
16655;DHT22;8441;51.344;7.022;2022-12-07T01:13:00;4.40;99.90
16655;DHT22;8441;51.344;7.022;2022-12-07T01:15:27;4.40;99.90
16655;DHT22;8441;51.344;7.022;2022-12-07T01:17:54;4.40;99.90
16655;DHT22;8441;51.344;7.022;2022-12-07T01:20:21;4.50;99.90
16655;DHT22;8441;51.344;7.022;2022-12-07T01:22:49;4.50;99.90
16655;DHT22;8441;51.344;7.022;2022-12-07T01:25:18;4.50;99.90
16655;DHT22;8441;51.344;7.022;2022-12-07T01:27:45;4.50;99.90
16655;DHT22;8441;51.344;7.022;2022-12-07T01:30:13;4.40;99.90
16655;DHT22;8441;51.344;7.022;2022-12-07T01:32:40;4.50;99.90
16655;DHT22;8441;51.344;7.022;2022-12-07T01:35:08;4.50;99.90
16655;DHT22;8441;51.344;7.022;2022-12-07T01:37:35;4.50;99.90
16655;DHT22;8441;51.344;7.022;2022-12-07T01:40:04;4.50;99.90
16655;DHT22;8441;51.344;7.022;2022-12-07T01:42:33;4.40;99.90
16655;DHT22;8441;51.344;7.022;2022-12-07T01:45:37;4.50;99.90
16655;DHT22;8441;51.344;7.022;2022-12-07T01:48:05;4.50;99.90
16655;DHT22;8441;51.344;7.022;2022-12-07T01:50:34;4.50;99.90
16655;DHT22;8441;51.344;7.022;2022-12-07T01:53:04;4.50;99.90
16655;DHT22;8441;51.344;7.022;2022-12-07T01:55:33;4.50;99.90
16655;DHT22;8441;51.344;7.022;2022-12-07T01:58:02;4.50;99.90
16655;DHT22;8441;51.344;7.022;2022-12-07T02:00:30;4.50;99.90
16655;DHT22;8441;51.344;7.022;2022-12-07T02:03:02;4.50;99.90
16655;DHT22;8441;51.344;7.022;2022-12-07T02:05:30;4.50;99.90
16655;DHT22;8441;51.344;7.022;2022-12-07T02:07:58;4.50;99.90
16655;DHT22;8441;51.344;7.022;2022-12-07T02:10:28;4.50;99.90
16655;DHT22;8441;51.344;7.022;2022-12-07T02:12:59;4.50;99.90
16655;DHT22;8441;51.344;7.022;2022-12-07T02:15:34;4.50;99.90
16655;DHT22;8441;51.344;7.022;2022-12-07T02:18:09;4.50;99.90
16655;DHT22;8441;51.344;7.022;2022-12-07T02:20:39;4.50;99.90
16655;DHT22;8441;51.344;7.022;2022-12-07T02:23:51;4.50;99.90
16655;DHT22;8441;51.344;7.022;2022-12-07T02:26:44;4.50;99.90
16655;DHT22;8441;51.344;7.022;2022-12-07T02:29:21;4.50;99.90
16655;DHT22;8441;51.344;7.022;2022-12-07T02:31:56;4.40;99.90
16655;DHT22;8441;51.344;7.022;2022-12-07T02:34:32;4.40;99.90
16655;DHT22;8441;51.344;7.022;2022-12-07T02:37:05;4.40;99.90
16655;DHT22;8441;51.344;7.022;2022-12-07T02:39:42;4.40;99.90
16655;DHT22;8441;51.344;7.022;2022-12-07T02:42:14;4.40;99.90
16655;DHT22;8441;51.344;7.022;2022-12-07T02:44:44;4.40;99.90
16655;DHT22;8441;51.344;7.022;2022-12-07T02:47:14;4.40;99.90
16655;DHT22;8441;51.344;7.022;2022-12-07T02:49:43;4.40;99.90
16655;DHT22;8441;51.344;7.022;2022-12-07T02:52:10;4.40;99.90
16655;DHT22;8441;51.344;7.022;2022-12-07T02:54:37;4.40;99.90
16655;DHT22;8441;51.344;7.022;2022-12-07T02:57:15;4.30;99.90
16655;DHT22;8441;51.344;7.022;2022-12-07T02:59:57;4.40;99.90
16655;DHT22;8441;51.344;7.022;2022-12-07T03:02:35;4.30;99.90
16655;DHT22;8441;51.344;7.022;2022-12-07T03:05:16;4.40;99.90
16655;DHT22;8441;51.344;7.022;2022-12-07T03:07:56;4.40;99.90
16655;DHT22;8441;51.344;7.022;2022-12-07T03:10:32;4.40;99.90
16655;DHT22;8441;51.344;7.022;2022-12-07T03:13:04;4.40;99.90
16655;DHT22;8441;51.344;7.022;2022-12-07T03:15:40;4.40;99.90
16655;DHT22;8441;51.344;7.022;2022-12-07T03:18:12;4.30;99.90
16655;DHT22;8441;51.344;7.022;2022-12-07T03:20:44;4.30;99.90
16655;DHT22;8441;51.344;7.022;2022-12-07T03:23:12;4.30;99.90
16655;DHT22;8441;51.344;7.022;2022-12-07T03:25:45;4.30;99.90
16655;DHT22;8441;51.344;7.022;2022-12-07T03:28:16;4.20;99.90
16655;DHT22;8441;51.344;7.022;2022-12-07T03:30:49;4.20;99.90
16655;DHT22;8441;51.344;7.022;2022-12-07T03:33:20;4.20;99.90
16655;DHT22;8441;51.344;7.022;2022-12-07T03:35:52;4.20;99.90
16655;DHT22;8441;51.344;7.022;2022-12-07T03:38:25;4.20;99.90
16655;DHT22;8441;51.344;7.022;2022-12-07T03:40:57;4.20;99.90
16655;DHT22;8441;51.344;7.022;2022-12-07T03:43:28;4.30;99.90
16655;DHT22;8441;51.344;7.022;2022-12-07T03:46:04;4.30;99.90
16655;DHT22;8441;51.344;7.022;2022-12-07T03:48:38;4.30;99.90
16655;DHT22;8441;51.344;7.022;2022-12-07T03:51:13;4.20;99.90
16655;DHT22;8441;51.344;7.022;2022-12-07T03:53:44;4.20;99.90
16655;DHT22;8441;51.344;7.022;2022-12-07T03:56:13;4.20;99.90
16655;DHT22;8441;51.344;7.022;2022-12-07T03:58:41;4.30;99.90
16655;DHT22;8441;51.344;7.022;2022-12-07T04:01:10;4.20;99.90
16655;DHT22;8441;51.344;7.022;2022-12-07T04:03:38;4.20;99.90
16655;DHT22;8441;51.344;7.022;2022-12-07T04:06:05;4.20;99.90
16655;DHT22;8441;51.344;7.022;2022-12-07T04:08:33;4.20;99.90
16655;DHT22;8441;51.344;7.022;2022-12-07T04:11:00;4.20;99.90
16655;DHT22;8441;51.344;7.022;2022-12-07T04:13:27;4.20;99.90
16655;DHT22;8441;51.344;7.022;2022-12-07T04:15:55;4.20;99.90
16655;DHT22;8441;51.344;7.022;2022-12-07T04:18:23;4.10;99.90
16655;DHT22;8441;51.344;7.022;2022-12-07T04:20:50;4.10;99.90
16655;DHT22;8441;51.344;7.022;2022-12-07T04:23:18;4.10;99.90
16655;DHT22;8441;51.344;7.022;2022-12-07T04:25:48;4.10;99.90
16655;DHT22;8441;51.344;7.022;2022-12-07T04:28:15;4.10;99.90
16655;DHT22;8441;51.344;7.022;2022-12-07T04:30:42;4.10;99.90
16655;DHT22;8441;51.344;7.022;2022-12-07T04:33:09;4.10;99.90
16655;DHT22;8441;51.344;7.022;2022-12-07T04:35:38;4.10;99.90
16655;DHT22;8441;51.344;7.022;2022-12-07T04:38:05;4.10;99.90
16655;DHT22;8441;51.344;7.022;2022-12-07T04:40:32;4.10;99.90
16655;DHT22;8441;51.344;7.022;2022-12-07T04:42:59;4.10;99.90
16655;DHT22;8441;51.344;7.022;2022-12-07T04:45:26;4.10;99.90
16655;DHT22;8441;51.344;7.022;2022-12-07T04:47:54;4.10;99.90
16655;DHT22;8441;51.344;7.022;2022-12-07T04:50:21;4.10;99.90
16655;DHT22;8441;51.344;7.022;2022-12-07T04:52:49;4.10;99.90
16655;DHT22;8441;51.344;7.022;2022-12-07T04:55:16;4.10;99.90
16655;DHT22;8441;51.344;7.022;2022-12-07T04:57:44;4.00;99.90
16655;DHT22;8441;51.344;7.022;2022-12-07T05:00:11;4.00;99.90
16655;DHT22;8441;51.344;7.022;2022-12-07T05:02:38;4.00;99.90
16655;DHT22;8441;51.344;7.022;2022-12-07T05:05:06;4.00;99.90
16655;DHT22;8441;51.344;7.022;2022-12-07T05:07:33;4.00;99.90
16655;DHT22;8441;51.344;7.022;2022-12-07T05:10:02;4.00;99.90
16655;DHT22;8441;51.344;7.022;2022-12-07T05:12:29;4.00;99.90
16655;DHT22;8441;51.344;7.022;2022-12-07T05:14:57;4.00;99.90
16655;DHT22;8441;51.344;7.022;2022-12-07T05:17:24;4.00;99.90
16655;DHT22;8441;51.344;7.022;2022-12-07T05:19:51;4.00;99.90
16655;DHT22;8441;51.344;7.022;2022-12-07T05:22:18;4.00;99.90
16655;DHT22;8441;51.344;7.022;2022-12-07T05:24:45;4.00;99.90
16655;DHT22;8441;51.344;7.022;2022-12-07T05:27:14;4.00;99.90
16655;DHT22;8441;51.344;7.022;2022-12-07T05:29:41;4.00;99.90
16655;DHT22;8441;51.344;7.022;2022-12-07T05:32:08;4.00;99.90
16655;DHT22;8441;51.344;7.022;2022-12-07T05:34:35;4.00;99.90
16655;DHT22;8441;51.344;7.022;2022-12-07T05:37:02;4.00;99.90
16655;DHT22;8441;51.344;7.022;2022-12-07T05:39:30;4.00;99.90
16655;DHT22;8441;51.344;7.022;2022-12-07T05:41:57;4.00;99.90
16655;DHT22;8441;51.344;7.022;2022-12-07T05:44:41;3.90;99.90
16655;DHT22;8441;51.344;7.022;2022-12-07T05:47:08;3.90;99.90
16655;DHT22;8441;51.344;7.022;2022-12-07T05:49:36;3.90;99.90
16655;DHT22;8441;51.344;7.022;2022-12-07T05:52:03;3.80;99.90
16655;DHT22;8441;51.344;7.022;2022-12-07T05:54:31;3.80;99.90
16655;DHT22;8441;51.344;7.022;2022-12-07T05:56:58;3.80;99.90
16655;DHT22;8441;51.344;7.022;2022-12-07T05:59:25;3.80;99.90
16655;DHT22;8441;51.344;7.022;2022-12-07T06:01:56;3.80;99.90
16655;DHT22;8441;51.344;7.022;2022-12-07T06:04:24;3.80;99.90
16655;DHT22;8441;51.344;7.022;2022-12-07T06:06:51;3.70;99.90
16655;DHT22;8441;51.344;7.022;2022-12-07T06:09:21;3.80;99.90
16655;DHT22;8441;51.344;7.022;2022-12-07T06:11:49;3.80;99.90
16655;DHT22;8441;51.344;7.022;2022-12-07T06:14:35;3.80;99.90
16655;DHT22;8441;51.344;7.022;2022-12-07T06:17:03;3.80;99.90
16655;DHT22;8441;51.344;7.022;2022-12-07T06:19:31;3.80;99.90
16655;DHT22;8441;51.344;7.022;2022-12-07T06:21:58;3.80;99.90
16655;DHT22;8441;51.344;7.022;2022-12-07T06:24:26;3.80;99.90
16655;DHT22;8441;51.344;7.022;2022-12-07T06:26:53;3.80;99.90
16655;DHT22;8441;51.344;7.022;2022-12-07T06:29:20;3.80;99.90
16655;DHT22;8441;51.344;7.022;2022-12-07T06:31:48;3.80;99.90
16655;DHT22;8441;51.344;7.022;2022-12-07T06:34:19;3.70;99.90
16655;DHT22;8441;51.344;7.022;2022-12-07T06:36:48;3.70;99.90
16655;DHT22;8441;51.344;7.022;2022-12-07T06:39:17;3.80;99.90
16655;DHT22;8441;51.344;7.022;2022-12-07T06:41:45;3.70;99.90
16655;DHT22;8441;51.344;7.022;2022-12-07T06:44:12;3.70;99.90
16655;DHT22;8441;51.344;7.022;2022-12-07T06:46:39;3.70;99.90
16655;DHT22;8441;51.344;7.022;2022-12-07T06:49:06;3.70;99.90
16655;DHT22;8441;51.344;7.022;2022-12-07T06:51:35;3.80;99.90
16655;DHT22;8441;51.344;7.022;2022-12-07T06:54:06;3.80;99.90
16655;DHT22;8441;51.344;7.022;2022-12-07T06:56:33;3.70;99.90
16655;DHT22;8441;51.344;7.022;2022-12-07T06:59:01;3.80;99.90
16655;DHT22;8441;51.344;7.022;2022-12-07T07:01:28;3.70;99.90
16655;DHT22;8441;51.344;7.022;2022-12-07T07:03:55;3.80;99.90
16655;DHT22;8441;51.344;7.022;2022-12-07T07:06:22;3.80;99.90
16655;DHT22;8441;51.344;7.022;2022-12-07T07:08:51;3.80;99.90
16655;DHT22;8441;51.344;7.022;2022-12-07T07:11:19;3.70;99.90
16655;DHT22;8441;51.344;7.022;2022-12-07T07:13:46;3.70;99.90
16655;DHT22;8441;51.344;7.022;2022-12-07T07:16:13;3.80;99.90
16655;DHT22;8441;51.344;7.022;2022-12-07T07:18:41;3.70;99.90
16655;DHT22;8441;51.344;7.022;2022-12-07T07:21:08;3.70;99.90
16655;DHT22;8441;51.344;7.022;2022-12-07T07:23:35;3.70;99.90
16655;DHT22;8441;51.344;7.022;2022-12-07T07:26:04;3.70;99.90
16655;DHT22;8441;51.344;7.022;2022-12-07T07:28:31;3.60;99.90
16655;DHT22;8441;51.344;7.022;2022-12-07T07:30:58;3.70;99.90
16655;DHT22;8441;51.344;7.022;2022-12-07T07:33:25;3.60;99.90
16655;DHT22;8441;51.344;7.022;2022-12-07T07:35:52;3.60;99.90
16655;DHT22;8441;51.344;7.022;2022-12-07T07:38:22;3.60;99.90
16655;DHT22;8441;51.344;7.022;2022-12-07T07:40:50;3.60;99.90
16655;DHT22;8441;51.344;7.022;2022-12-07T07:43:18;3.50;99.90
16655;DHT22;8441;51.344;7.022;2022-12-07T07:45:45;3.50;99.90
16655;DHT22;8441;51.344;7.022;2022-12-07T07:48:13;3.50;99.90
16655;DHT22;8441;51.344;7.022;2022-12-07T07:50:42;3.40;99.90
16655;DHT22;8441;51.344;7.022;2022-12-07T07:53:09;3.40;99.90
16655;DHT22;8441;51.344;7.022;2022-12-07T07:55:36;3.50;99.90
16655;DHT22;8441;51.344;7.022;2022-12-07T07:58:08;3.50;99.90
16655;DHT22;8441;51.344;7.022;2022-12-07T08:00:36;3.50;99.90
16655;DHT22;8441;51.344;7.022;2022-12-07T08:03:03;3.60;99.90
16655;DHT22;8441;51.344;7.022;2022-12-07T08:05:30;3.60;99.90
16655;DHT22;8441;51.344;7.022;2022-12-07T08:07:58;3.60;99.90
16655;DHT22;8441;51.344;7.022;2022-12-07T08:10:25;3.60;99.90
16655;DHT22;8441;51.344;7.022;2022-12-07T08:12:52;3.60;99.90
16655;DHT22;8441;51.344;7.022;2022-12-07T08:15:39;3.70;99.90
16655;DHT22;8441;51.344;7.022;2022-12-07T08:18:07;3.70;99.90
16655;DHT22;8441;51.344;7.022;2022-12-07T08:20:36;3.70;99.90
16655;DHT22;8441;51.344;7.022;2022-12-07T08:23:03;3.70;99.90
16655;DHT22;8441;51.344;7.022;2022-12-07T08:25:33;3.80;99.90
16655;DHT22;8441;51.344;7.022;2022-12-07T08:28:00;3.80;99.90
16655;DHT22;8441;51.344;7.022;2022-12-07T08:30:30;3.80;99.90
16655;DHT22;8441;51.344;7.022;2022-12-07T08:32:59;3.90;99.90
16655;DHT22;8441;51.344;7.022;2022-12-07T08:35:28;3.90;99.90
16655;DHT22;8441;51.344;7.022;2022-12-07T08:37:56;4.10;99.90
16655;DHT22;8441;51.344;7.022;2022-12-07T08:40:24;4.00;99.90
16655;DHT22;8441;51.344;7.022;2022-12-07T08:42:51;4.10;99.90
16655;DHT22;8441;51.344;7.022;2022-12-07T08:45:20;4.20;99.90
16655;DHT22;8441;51.344;7.022;2022-12-07T08:47:50;4.20;99.90
16655;DHT22;8441;51.344;7.022;2022-12-07T08:50:22;4.20;99.90
16655;DHT22;8441;51.344;7.022;2022-12-07T08:52:51;4.20;99.90
16655;DHT22;8441;51.344;7.022;2022-12-07T08:55:19;4.20;99.90
16655;DHT22;8441;51.344;7.022;2022-12-07T08:57:48;4.20;99.90
16655;DHT22;8441;51.344;7.022;2022-12-07T09:00:18;4.20;99.90
16655;DHT22;8441;51.344;7.022;2022-12-07T09:02:46;4.20;99.90
16655;DHT22;8441;51.344;7.022;2022-12-07T09:05:14;4.20;99.90
16655;DHT22;8441;51.344;7.022;2022-12-07T09:07:45;4.10;99.90
16655;DHT22;8441;51.344;7.022;2022-12-07T09:10:13;4.10;99.90
16655;DHT22;8441;51.344;7.022;2022-12-07T09:12:40;4.20;99.90
16655;DHT22;8441;51.344;7.022;2022-12-07T09:15:08;4.20;99.90
16655;DHT22;8441;51.344;7.022;2022-12-07T09:17:35;4.30;99.90
16655;DHT22;8441;51.344;7.022;2022-12-07T09:20:03;4.30;99.90
16655;DHT22;8441;51.344;7.022;2022-12-07T09:22:31;4.30;99.90
16655;DHT22;8441;51.344;7.022;2022-12-07T09:25:00;4.30;99.90
16655;DHT22;8441;51.344;7.022;2022-12-07T09:27:28;4.30;99.90
16655;DHT22;8441;51.344;7.022;2022-12-07T09:29:55;4.30;99.90
16655;DHT22;8441;51.344;7.022;2022-12-07T09:32:22;4.30;99.90
16655;DHT22;8441;51.344;7.022;2022-12-07T09:34:50;4.40;99.90
16655;DHT22;8441;51.344;7.022;2022-12-07T09:37:17;4.30;99.90
16655;DHT22;8441;51.344;7.022;2022-12-07T09:39:44;4.40;99.90
16655;DHT22;8441;51.344;7.022;2022-12-07T09:42:24;4.40;99.90
16655;DHT22;8441;51.344;7.022;2022-12-07T09:44:53;4.50;99.90
16655;DHT22;8441;51.344;7.022;2022-12-07T09:47:20;4.70;99.90
16655;DHT22;8441;51.344;7.022;2022-12-07T09:49:47;4.70;99.90
16655;DHT22;8441;51.344;7.022;2022-12-07T09:52:19;4.70;99.90
16655;DHT22;8441;51.344;7.022;2022-12-07T09:54:50;4.70;99.90
16655;DHT22;8441;51.344;7.022;2022-12-07T09:57:22;4.70;99.90
16655;DHT22;8441;51.344;7.022;2022-12-07T09:59:54;4.80;99.90
16655;DHT22;8441;51.344;7.022;2022-12-07T10:02:33;4.80;99.90
16655;DHT22;8441;51.344;7.022;2022-12-07T10:05:01;4.90;99.90
16655;DHT22;8441;51.344;7.022;2022-12-07T10:07:30;5.00;99.90
16655;DHT22;8441;51.344;7.022;2022-12-07T10:09:57;5.00;99.90
16655;DHT22;8441;51.344;7.022;2022-12-07T10:12:26;5.10;99.90
16655;DHT22;8441;51.344;7.022;2022-12-07T10:14:55;5.10;99.90
16655;DHT22;8441;51.344;7.022;2022-12-07T10:17:34;5.20;99.90
16655;DHT22;8441;51.344;7.022;2022-12-07T10:20:23;5.30;99.90
16655;DHT22;8441;51.344;7.022;2022-12-07T10:22:59;5.50;99.90
16655;DHT22;8441;51.344;7.022;2022-12-07T10:25:28;5.50;99.90
16655;DHT22;8441;51.344;7.022;2022-12-07T10:28:01;5.40;99.90
16655;DHT22;8441;51.344;7.022;2022-12-07T10:30:32;5.40;99.90
16655;DHT22;8441;51.344;7.022;2022-12-07T10:32:59;5.40;99.90
16655;DHT22;8441;51.344;7.022;2022-12-07T10:35:28;5.30;99.90
16655;DHT22;8441;51.344;7.022;2022-12-07T10:37:57;5.40;99.90
16655;DHT22;8441;51.344;7.022;2022-12-07T10:40:31;5.50;99.90
16655;DHT22;8441;51.344;7.022;2022-12-07T10:43:18;5.60;99.90
16655;DHT22;8441;51.344;7.022;2022-12-07T10:46:07;5.60;99.90
16655;DHT22;8441;51.344;7.022;2022-12-07T10:48:45;5.60;99.90
16655;DHT22;8441;51.344;7.022;2022-12-07T10:51:22;5.70;99.90
16655;DHT22;8441;51.344;7.022;2022-12-07T10:53:58;5.50;99.90
16655;DHT22;8441;51.344;7.022;2022-12-07T10:56:54;5.50;99.90
16655;DHT22;8441;51.344;7.022;2022-12-07T10:59:48;5.50;99.90
16655;DHT22;8441;51.344;7.022;2022-12-07T11:02:25;5.50;99.90
16655;DHT22;8441;51.344;7.022;2022-12-07T11:05:04;5.50;99.90
16655;DHT22;8441;51.344;7.022;2022-12-07T11:07:43;5.50;99.90
16655;DHT22;8441;51.344;7.022;2022-12-07T11:10:18;5.60;99.90
16655;DHT22;8441;51.344;7.022;2022-12-07T11:12:53;5.70;99.90
16655;DHT22;8441;51.344;7.022;2022-12-07T11:15:26;5.70;99.90
16655;DHT22;8441;51.344;7.022;2022-12-07T11:18:03;5.70;99.90
16655;DHT22;8441;51.344;7.022;2022-12-07T11:20:42;5.70;99.90
16655;DHT22;8441;51.344;7.022;2022-12-07T11:23:21;5.60;99.90
16655;DHT22;8441;51.344;7.022;2022-12-07T11:25:55;5.60;99.90
16655;DHT22;8441;51.344;7.022;2022-12-07T11:28:38;5.60;99.90
16655;DHT22;8441;51.344;7.022;2022-12-07T11:31:13;5.60;99.90
16655;DHT22;8441;51.344;7.022;2022-12-07T11:33:49;5.60;99.90
16655;DHT22;8441;51.344;7.022;2022-12-07T11:36:37;5.80;99.90
16655;DHT22;8441;51.344;7.022;2022-12-07T11:39:11;5.80;99.90
16655;DHT22;8441;51.344;7.022;2022-12-07T11:41:42;5.80;99.90
16655;DHT22;8441;51.344;7.022;2022-12-07T11:44:22;5.80;99.90
16655;DHT22;8441;51.344;7.022;2022-12-07T11:46:58;5.80;99.90
16655;DHT22;8441;51.344;7.022;2022-12-07T11:49:39;5.70;99.90
16655;DHT22;8441;51.344;7.022;2022-12-07T11:52:16;5.70;99.90
16655;DHT22;8441;51.344;7.022;2022-12-07T11:54:49;5.60;99.90
16655;DHT22;8441;51.344;7.022;2022-12-07T11:57:22;5.70;99.90
16655;DHT22;8441;51.344;7.022;2022-12-07T11:59:56;5.70;99.90
16655;DHT22;8441;51.344;7.022;2022-12-07T12:02:28;5.80;99.90
16655;DHT22;8441;51.344;7.022;2022-12-07T12:05:02;5.90;99.90
16655;DHT22;8441;51.344;7.022;2022-12-07T12:07:32;5.90;99.90
16655;DHT22;8441;51.344;7.022;2022-12-07T12:10:03;5.90;99.90
16655;DHT22;8441;51.344;7.022;2022-12-07T12:12:50;5.90;99.90
16655;DHT22;8441;51.344;7.022;2022-12-07T12:15:30;5.90;99.90
16655;DHT22;8441;51.344;7.022;2022-12-07T12:21:06;5.90;99.90
16655;DHT22;8441;51.344;7.022;2022-12-07T12:23:39;5.90;99.90
16655;DHT22;8441;51.344;7.022;2022-12-07T12:26:16;5.90;99.90
16655;DHT22;8441;51.344;7.022;2022-12-07T12:28:52;5.80;99.90
16655;DHT22;8441;51.344;7.022;2022-12-07T12:31:36;5.80;99.90
16655;DHT22;8441;51.344;7.022;2022-12-07T12:34:32;5.80;99.90
16655;DHT22;8441;51.344;7.022;2022-12-07T12:37:01;5.80;99.90
16655;DHT22;8441;51.344;7.022;2022-12-07T12:39:28;5.80;99.90
16655;DHT22;8441;51.344;7.022;2022-12-07T12:41:59;5.90;99.90
16655;DHT22;8441;51.344;7.022;2022-12-07T12:45:11;5.90;99.90
16655;DHT22;8441;51.344;7.022;2022-12-07T12:47:56;5.90;99.90
16655;DHT22;8441;51.344;7.022;2022-12-07T12:50:28;5.90;99.90
16655;DHT22;8441;51.344;7.022;2022-12-07T12:53:15;6.00;99.90
16655;DHT22;8441;51.344;7.022;2022-12-07T12:59:24;5.90;99.90
16655;DHT22;8441;51.344;7.022;2022-12-07T13:01:54;5.80;99.90
16655;DHT22;8441;51.344;7.022;2022-12-07T13:04:47;5.80;99.90
16655;DHT22;8441;51.344;7.022;2022-12-07T13:10:39;5.80;99.90
16655;DHT22;8441;51.344;7.022;2022-12-07T13:22:51;6.00;99.90
16655;DHT22;8441;51.344;7.022;2022-12-07T13:25:23;6.00;99.90
16655;DHT22;8441;51.344;7.022;2022-12-07T13:28:01;6.00;99.90
16655;DHT22;8441;51.344;7.022;2022-12-07T13:30:31;5.90;99.90
16655;DHT22;8441;51.344;7.022;2022-12-07T13:33:00;5.80;99.90
16655;DHT22;8441;51.344;7.022;2022-12-07T13:35:33;5.70;99.90
16655;DHT22;8441;51.344;7.022;2022-12-07T13:38:05;5.70;99.90
16655;DHT22;8441;51.344;7.022;2022-12-07T13:40:33;5.70;99.90
16655;DHT22;8441;51.344;7.022;2022-12-07T13:43:03;5.60;99.90
16655;DHT22;8441;51.344;7.022;2022-12-07T13:45:34;5.50;99.90
16655;DHT22;8441;51.344;7.022;2022-12-07T13:48:30;5.50;99.90
16655;DHT22;8441;51.344;7.022;2022-12-07T13:51:00;5.50;99.90
16655;DHT22;8441;51.344;7.022;2022-12-07T13:53:28;5.40;99.90
16655;DHT22;8441;51.344;7.022;2022-12-07T13:55:56;5.30;99.90
16655;DHT22;8441;51.344;7.022;2022-12-07T13:58:26;5.30;99.90
16655;DHT22;8441;51.344;7.022;2022-12-07T14:00:54;5.20;99.90
16655;DHT22;8441;51.344;7.022;2022-12-07T14:03:32;5.10;99.90
16655;DHT22;8441;51.344;7.022;2022-12-07T14:06:13;5.00;99.90
16655;DHT22;8441;51.344;7.022;2022-12-07T14:08:41;4.80;99.90
16655;DHT22;8441;51.344;7.022;2022-12-07T14:11:12;4.70;99.90
16655;DHT22;8441;51.344;7.022;2022-12-07T14:13:50;4.60;99.90
16655;DHT22;8441;51.344;7.022;2022-12-07T14:16:24;4.50;99.90
16655;DHT22;8441;51.344;7.022;2022-12-07T14:18:54;4.40;99.90
16655;DHT22;8441;51.344;7.022;2022-12-07T14:21:23;4.30;99.90
16655;DHT22;8441;51.344;7.022;2022-12-07T14:24:14;4.30;99.90
16655;DHT22;8441;51.344;7.022;2022-12-07T14:26:42;4.20;99.90
16655;DHT22;8441;51.344;7.022;2022-12-07T14:29:30;4.10;99.90
16655;DHT22;8441;51.344;7.022;2022-12-07T14:31:57;4.10;99.90
16655;DHT22;8441;51.344;7.022;2022-12-07T14:34:26;4.00;99.90
16655;DHT22;8441;51.344;7.022;2022-12-07T14:36:53;4.00;99.90
16655;DHT22;8441;51.344;7.022;2022-12-07T14:39:20;3.90;99.90
16655;DHT22;8441;51.344;7.022;2022-12-07T14:41:47;3.90;99.90
16655;DHT22;8441;51.344;7.022;2022-12-07T14:44:23;3.80;99.90
16655;DHT22;8441;51.344;7.022;2022-12-07T14:46:50;3.80;99.90
16655;DHT22;8441;51.344;7.022;2022-12-07T14:49:19;3.70;99.90
16655;DHT22;8441;51.344;7.022;2022-12-07T14:51:47;3.60;99.90
16655;DHT22;8441;51.344;7.022;2022-12-07T14:54:16;3.60;99.90
16655;DHT22;8441;51.344;7.022;2022-12-07T14:56:44;3.50;99.90
16655;DHT22;8441;51.344;7.022;2022-12-07T14:59:15;3.50;99.90
16655;DHT22;8441;51.344;7.022;2022-12-07T15:01:43;3.50;99.90
16655;DHT22;8441;51.344;7.022;2022-12-07T15:04:13;3.40;99.90
16655;DHT22;8441;51.344;7.022;2022-12-07T15:06:55;3.40;99.90
16655;DHT22;8441;51.344;7.022;2022-12-07T15:09:23;3.40;99.90
16655;DHT22;8441;51.344;7.022;2022-12-07T15:11:50;3.30;99.90
16655;DHT22;8441;51.344;7.022;2022-12-07T15:14:17;3.30;99.90
16655;DHT22;8441;51.344;7.022;2022-12-07T15:16:46;3.20;99.90
16655;DHT22;8441;51.344;7.022;2022-12-07T15:19:14;3.20;99.90
16655;DHT22;8441;51.344;7.022;2022-12-07T15:21:42;3.10;99.90
16655;DHT22;8441;51.344;7.022;2022-12-07T15:24:12;3.10;99.90
16655;DHT22;8441;51.344;7.022;2022-12-07T15:26:41;3.10;99.90
16655;DHT22;8441;51.344;7.022;2022-12-07T15:29:09;3.00;99.90
16655;DHT22;8441;51.344;7.022;2022-12-07T15:31:37;3.10;99.90
16655;DHT22;8441;51.344;7.022;2022-12-07T15:34:06;3.10;99.90
16655;DHT22;8441;51.344;7.022;2022-12-07T15:36:36;3.20;99.90
16655;DHT22;8441;51.344;7.022;2022-12-07T15:39:05;3.10;99.90
16655;DHT22;8441;51.344;7.022;2022-12-07T15:41:32;3.10;99.90
16655;DHT22;8441;51.344;7.022;2022-12-07T15:43:59;3.10;99.90
16655;DHT22;8441;51.344;7.022;2022-12-07T15:46:44;3.10;99.90
16655;DHT22;8441;51.344;7.022;2022-12-07T15:49:14;3.10;99.90
16655;DHT22;8441;51.344;7.022;2022-12-07T15:51:42;3.10;99.90
16655;DHT22;8441;51.344;7.022;2022-12-07T15:54:16;3.20;99.90
16655;DHT22;8441;51.344;7.022;2022-12-07T15:56:44;3.20;99.90
16655;DHT22;8441;51.344;7.022;2022-12-07T15:59:12;3.30;99.90
16655;DHT22;8441;51.344;7.022;2022-12-07T16:01:39;3.30;99.90
16655;DHT22;8441;51.344;7.022;2022-12-07T16:04:06;3.40;99.90
16655;DHT22;8441;51.344;7.022;2022-12-07T16:06:35;3.40;99.90
16655;DHT22;8441;51.344;7.022;2022-12-07T16:09:02;3.40;99.90
16655;DHT22;8441;51.344;7.022;2022-12-07T16:11:30;3.40;99.90
16655;DHT22;8441;51.344;7.022;2022-12-07T16:13:57;3.50;99.90
16655;DHT22;8441;51.344;7.022;2022-12-07T16:16:24;3.60;99.90
16655;DHT22;8441;51.344;7.022;2022-12-07T16:18:52;3.70;99.90
16655;DHT22;8441;51.344;7.022;2022-12-07T16:21:20;3.70;99.90
16655;DHT22;8441;51.344;7.022;2022-12-07T16:23:49;3.80;99.90
16655;DHT22;8441;51.344;7.022;2022-12-07T16:26:18;3.90;99.90
16655;DHT22;8441;51.344;7.022;2022-12-07T16:28:48;3.80;99.90
16655;DHT22;8441;51.344;7.022;2022-12-07T16:31:21;3.80;99.90
16655;DHT22;8441;51.344;7.022;2022-12-07T16:33:54;3.80;99.90
16655;DHT22;8441;51.344;7.022;2022-12-07T16:36:26;3.80;99.90
16655;DHT22;8441;51.344;7.022;2022-12-07T16:38:55;3.80;99.90
16655;DHT22;8441;51.344;7.022;2022-12-07T16:41:22;3.80;99.90
16655;DHT22;8441;51.344;7.022;2022-12-07T16:43:53;3.80;99.90
16655;DHT22;8441;51.344;7.022;2022-12-07T16:46:20;3.80;99.90